Terminal Aerodrome Forecast
Issued by NWS

Home | Current Version | Previous Version | Text Only | Print | Product List | Glossary On
Versions: 1 2 3 4 5 6 7 8 9 10 11 12 13 14 15 16 17 18 19 20 21 22 23 24 25 26 27 28 29 30 31 32
000
FTUS46 KPQR 230151 AAA
TAFONP
TAF AMD
KONP 230151Z 2302/2324 19007KT 1SM BR VCSH OVC002
     FM231200 12007KT 1SM BR BKN005
     FM231800 08007KT 2SM BR SCT250
     FM231900 03007KT 4SM BR SKC=

USA.gov is the U.S. government's official web portal to all federal, state and local government web resources and services.